Tiempo atmosférico en la estación meteorológica de Zumaia, Gipuzkoa (28 m.)



Fecha
DESCASC
Temp. máxima en grados centígrados (hora)
DESCASC
Temp. mínima en grados centígrados (hora)
DESCASC
Temp. media en grados centígrados
DESCASC
Racha de viento máxima en m/sg (hora)
DESCASC
Velocidad máxima media en intervalos de 10 minutos(hora)
DESCASC
Precipitaciones diarias en mm
DESCASC
Precipitaciones de 00:00 a 06:00 en mm
DESCASC
Precipitaciones de 06:00 a 12:00 en mm
DESCASC
Precipitaciones de 12:00 a 18:00 en mm
DESCASC
Precipitaciones de 18:00 a 24:00 en mm
DESCASC
14-12-2019 20.5 (13:30) 12.4 (02:50) 16.4 15.83 (23:50) 10 (23:59) 0.1 0 0.1 0 0
13-12-2019 17.3 (11:50) 14.2 (17:20) 15.7 28.89 (07:50) 17.22 (07:50) 4.2 1.4 1.7 1.1 0
12-12-2019 15.5 (23:59) 9.5 (06:20) 12.5 19.17 (23:50) 10.28 (15:30) 30.6 9.4 0.3 6.2 14.7
11-12-2019 14.9 (06:30) 9.6 (00:00) 12.3 21.67 (09:40) 13.33 (09:20) 17.8 0 3.8 0.4 13.6
10-12-2019 17.4 (14:20) 8.8 (00:00) 13.1 12.5 (00:20) 8.33 (00:30) 0.2 0 0.1 0.1 0
09-12-2019 14.2 (14:50) 11.6 (00:00) 12.9 21.67 (12:00) 14.72 (13:50) 1.7 0.3 1.2 0.1 0.1
08-12-2019 14.9 (16:40) 8.6 (00:00) 11.8 16.11 (17:10) 8.33 (17:20) 3.8 0 0.1 3.3 0.4
07-12-2019 17.1 (13:30) 6.6 (00:00) 11.9 5.28 (08:30) 4.72 (08:40) 0 0 0 0 0
06-12-2019 15.7 (14:20) 6 (00:00) 10.8 7.5 (13:10) 4.17 (08:10) 0 0 0 0 0
05-12-2019 15.7 (14:10) 8.3 (00:00) 12 8.33 (14:30) 5 (14:30) 0 0 0 0 0
04-12-2019 12.3 (13:50) 2.4 (00:00) 7.4 12.5 (16:50) 8.61 (16:50) 0.1 0.1 0 0 0
03-12-2019 11.3 (15:10) 3.6 (00:00) 7.5 8.61 (00:40) 4.72 (00:40) 1.9 1.9 0 0 0
02-12-2019 11.3 (11:40) 8.3 (00:00) 9.8 14.17 (12:10) 10.83 (12:20) 17.7 3.3 14.4 0 0
01-12-2019 17.3 (14:10) 8.2 (00:00) 12.7 13.61 (19:50) 8.33 (19:50) 9 0 0 0 9
30-11-2019 19.7 (09:40) 8.4 (00:00) 14.1 17.78 (07:30) 12.78 (11:40) 16.5 0.1 0.6 15.6 0.2
29-11-2019 18.1 (14:30) 9.8 (00:00) 14 4.44 (00:10) 3.33 (21:20) 0.6 0.6 0 0 0
28-11-2019 15.1 (13:40) 10.5 (00:00) 12.8 9.17 (16:30) 6.39 (16:40) 10.7 0.4 0.4 6.2 3.7
27-11-2019 18 (13:40) 10.2 (00:00) 14.1 14.44 (17:20) 8.61 (17:20) 1.9 0 0 1 0.9
26-11-2019 21.4 (12:40) 10.3 (00:00) 15.8 20.83 (11:00) 13.61 (11:00) 0 0 0 0 0
25-11-2019 17.9 (12:40) 10.8 (00:00) 14.3 11.67 (00:10) 7.5 (00:10) 0.7 0.6 0.1 0 0
24-11-2019 14.6 (16:20) 9.8 (00:00) 12.2 13.33 (23:59) 8.33 (23:10) 19.4 12.1 4 0 3.3
23-11-2019 15.7 (00:10) 10.9 (00:00) 13.3 26.11 (12:50) 19.17 (12:50) 21.9 1.7 11 4.8 4.4
22-11-2019 16.7 (21:00) 10.9 (00:00) 13.8 26.67 (13:30) 13.61 (12:50) 0 0 0 0 0
21-11-2019 18.2 (14:20) 8.8 (00:00) 13.5 14.44 (01:30) 8.89 (01:20) 0 0 0 0 0
20-11-2019 15.3 (14:10) 6.4 (00:00) 10.9 16.67 (22:50) 10.28 (23:00) 0 0 0 0 0
19-11-2019 14.8 (14:40) 6 (00:00) 10.4 6.39 (16:00) 4.72 (16:00) 0.6 0.5 0.1 0 0
18-11-2019 13.4 (15:30) 6.2 (00:00) 9.8 15.56 (03:10) 10.56 (03:10) 15.2 2.9 9.4 0 2.9
17-11-2019 13 (14:40) 8.3 (00:00) 10.7 13.61 (20:20) 9.44 (20:40) 26.3 4.2 4.1 6.8 11.2
16-11-2019 11 (15:10) 5.7 (00:00) 8.3 12.78 (11:10) 5.56 (10:30) 33.3 0 13.9 14.7 4.7

Gráficas

Temp. máximas Temp. mínimas Temp. medias Precipitaciones Rachas de viento máximas Velocidades máximas media en intervalos de 10 minutos

Datos horarios

Fecha y hora oficial Temperatura (ºC) Velocidad del viento (km/h) Dirección del viento Racha (km/h) Dirección de racha Precipitación (mm) Presión (hPa) Tendencia (hPa) Humedad (%)
2019-12-15 23:00:00 16.5 14 Sur 49 Sur 0 -- -- 51
2019-12-15 22:00:00 16.3 25 Sur 50 Sur 0 -- -- 50
2019-12-15 21:00:00 16.9 17 Sur 36 Sur 0 -- -- 48
2019-12-15 20:00:00 17.3 19 Sur 41 Sur 0 -- -- 48
2019-12-15 19:00:00 16.7 6 Sur 33 Sur 0 -- -- 50
2019-12-15 18:00:00 17.3 18 Sudoeste 36 Sudoeste 0 -- -- 47
2019-12-15 17:00:00 18 24 Sudoeste 57 Sudoeste 0 -- -- 46
2019-12-15 16:00:00 18.1 30 Sudoeste 55 Sudoeste 0 -- -- 46
2019-12-15 15:00:00 19.6 17 Sudoeste 64 Sudoeste 0 -- -- 43
2019-12-15 14:00:00 20.1 20 Sudoeste 49 Sudoeste 0 -- -- 44
2019-12-15 13:00:00 19.8 24 Sudoeste 65 Sudoeste 0 -- -- 45
2019-12-15 12:00:00 19.2 27 Sudoeste 55 Sudoeste 0 -- -- 47
2019-12-15 11:00:00 18.5 19 Sudoeste 51 Sudoeste 0 -- -- 50
2019-12-15 10:00:00 18 21 Sudoeste 50 Sudoeste 0 -- -- 51
2019-12-15 09:00:00 16.3 28 Sudoeste 62 Sudoeste 0 -- -- 54
2019-12-15 08:00:00 15.7 27 Sudoeste 48 Sudoeste 0 -- -- 56
2019-12-15 07:00:00 16.1 24 Sur 53 Sur 0 -- -- 56
2019-12-15 06:00:00 15.9 32 Sur 57 Sur 0 -- -- 57
2019-12-15 05:00:00 16.2 32 Sur 58 Sur 0 -- -- 57
2019-12-15 04:00:00 16.2 33 Sur 63 Sudoeste 0 -- -- 56
2019-12-15 03:00:00 16.2 33 Sur 70 Sur 0 -- -- 56
2019-12-15 02:00:00 16.2 31 Sur 59 Sudoeste 0 -- -- 56
2019-12-15 01:00:00 16.6 34 Sur 56 Sur 0 -- -- 57
2019-12-15 00:00:00 16.6 36 Sur 57 Sur 0 -- -- 56
2019-12-14 23:00:00 16.3 22 Sur 40 Sur 0 -- -- 56
2019-12-14 22:00:00 16.4 18 Sur 36 Sur 0 -- -- 58
2019-12-14 21:00:00 16.2 22 Sur 52 Sur 0 -- -- 57
2019-12-14 20:00:00 16.5 31 Sudoeste 50 Sudoeste 0 -- -- 58
2019-12-14 19:00:00 16.6 23 Sur 44 Sur 0 -- -- 58
2019-12-14 18:00:00 16.6 24 Sur 41 Sur 0 -- -- 56
2019-12-14 17:00:00 16.9 19 Sur 40 Sudoeste 0 -- -- 55
2019-12-14 16:00:00 17.7 25 Sudoeste 46 Sudoeste 0 -- -- 53
2019-12-14 15:00:00 18.1 27 Sudoeste 44 Sur 0 -- -- 50
2019-12-14 14:00:00 19.3 21 Sur 34 Sur 0 -- -- 52
2019-12-14 13:00:00 19.4 17 Sudoeste 35 Sudoeste 0 -- -- 52
2019-12-14 12:00:00 18.5 21 Sur 36 Sudoeste 0 -- -- 55
2019-12-14 11:00:00 16.2 22 Sur 41 Sudoeste 0 -- -- 60
2019-12-14 10:00:00 15.2 23 Sur 33 Sur 0 -- -- 64
2019-12-14 09:00:00 14 19 Sur 28 Sur 0 -- -- 67
2019-12-14 08:00:00 13.6 13 Sur 19 Sudoeste 0 -- -- 71
2019-12-14 07:00:00 13.6 8 Sur 21 Sur 0.1 -- -- 73
2019-12-14 06:00:00 13.9 10 Sur 22 Sur 0 -- -- 76
2019-12-14 05:00:00 13 16 Sudoeste 22 Sudoeste 0 -- -- 82
2019-12-14 04:00:00 12.9 10 Sur 18 Sur 0 -- -- 85
2019-12-14 03:00:00 12.5 6 Sur 16 Sudoeste 0 -- -- 86
2019-12-14 02:00:00 12.8 8 Sur 19 Sudoeste 0 -- -- 83
2019-12-14 01:00:00 14.8 0 Calma 18 Sudoeste 0 -- -- 76
2019-12-14 00:00:00 14.6 0 Calma 46 Noroeste 0 -- -- 72
2019-12-13 23:00:00 15.3 11 Noroeste 49 Noroeste 0 -- -- 70
2019-12-13 22:00:00 16.3 26 Noroeste 53 Noroeste 0 -- -- 71
2019-12-13 21:00:00 15.9 19 Noroeste 52 Noroeste 0 -- -- 71
2019-12-13 20:00:00 16 19 Noroeste 58 Noroeste 0 -- -- 76
2019-12-13 19:00:00 15.4 21 Noroeste 64 Noroeste 0 -- -- 82
2019-12-13 18:00:00 15.3 17 Noroeste 46 Noroeste 0.7 -- -- 95
2019-12-13 17:00:00 14.7 27 Noroeste 68 Noroeste 0.2 -- -- 95
2019-12-13 16:00:00 15.7 41 Noroeste 71 Noroeste 0 -- -- 84
2019-12-13 15:00:00 16.2 49 Noroeste 77 Noroeste 0 -- -- 76
2019-12-13 14:00:00 16.4 44 Noroeste 84 Noroeste 0 -- -- 76
2019-12-13 13:00:00 16.7 36 Noroeste 99 Noroeste 0.2 -- -- 73
2019-12-13 12:00:00 16.3 58 Noroeste 95 Noroeste 0.5 -- -- 76
2019-12-13 11:00:00 16.3 46 Noroeste 96 Noroeste 0.1 -- -- 75
2019-12-13 10:00:00 16 54 Noroeste 94 Noroeste 0.8 -- -- 76
2019-12-13 09:00:00 16.5 40 Noroeste 96 Noroeste 0 -- -- 73
2019-12-13 08:00:00 16.2 48 Noroeste 104 Noroeste 0.3 -- -- 77
2019-12-13 07:00:00 16.7 54 Noroeste 96 Noroeste 0 -- -- 75
2019-12-13 06:00:00 16.6 44 Noroeste 98 Noroeste 0.3 -- -- 74
2019-12-13 05:00:00 15.7 37 Noroeste 77 Noroeste 0 -- -- 82
2019-12-13 04:00:00 15.9 41 Noroeste 88 Noroeste 0.2 -- -- 80
2019-12-13 03:00:00 15.7 31 Noroeste 76 Noroeste 0.4 -- -- 85
2019-12-13 02:00:00 15.3 31 Noroeste 73 Noroeste 0.1 -- -- 87
2019-12-13 01:00:00 15 35 Noroeste 79 Noroeste 0.4 -- -- 90
2019-12-13 00:00:00 15.2 31 Noroeste 69 Noroeste 0.7 -- -- 92
2019-12-12 23:00:00 15 19 Noroeste 54 Noroeste 2.3 -- -- 93
2019-12-12 22:00:00 14.6 21 Noroeste 53 Noroeste 2.7 -- -- 93
2019-12-12 21:00:00 14.8 25 Noroeste 67 Noroeste 1.5 -- -- 92
2019-12-12 20:00:00 13.7 5 Oeste 36 Sudoeste 4.5 -- -- 92
2019-12-12 19:00:00 13.8 10 Sudoeste 52 Sudoeste 3 -- -- 87
2019-12-12 18:00:00 13.4 19 Sudoeste 55 Sudoeste 2.2 -- -- 85
2019-12-12 17:00:00 11.5 27 Sudoeste 59 Sudoeste 1.2 -- -- 86
2019-12-12 16:00:00 11.9 31 Sudoeste 61 Sudoeste 0.5 -- -- 81
2019-12-12 15:00:00 11.4 30 Sudoeste 59 Sudoeste 0.6 -- -- 84
2019-12-12 14:00:00 11.2 15 Sudoeste 28 Sudoeste 1.7 -- -- 85
2019-12-12 13:00:00 11.4 14 Sudoeste 35 Sudoeste 0 -- -- 76
2019-12-12 12:00:00 11.5 17 Sudoeste 32 Sudoeste 0 -- -- 77
2019-12-12 11:00:00 10.9 18 Sudoeste 39 Sudoeste 0 -- -- 79
2019-12-12 10:00:00 11 22 Sur 44 Sudoeste 0 -- -- 77
2019-12-12 09:00:00 10.7 22 Sur 40 Sudoeste 0 -- -- 81
2019-12-12 08:00:00 10.5 18 Sur 32 Sudoeste 0.1 -- -- 83
2019-12-12 07:00:00 9.9 10 Sudoeste 24 Sudoeste 0.2 -- -- 85
2019-12-12 06:00:00 9.8 7 Sudoeste 19 Sudoeste 0.4 -- -- 87
2019-12-12 05:00:00 10.5 6 Sudoeste 29 Oeste 0.1 -- -- 80
2019-12-12 04:00:00 11.2 12 Oeste 40 Oeste 0 -- -- 77
2019-12-12 03:00:00 10.3 7 Sudoeste 39 Noroeste 4 -- -- 90
2019-12-12 02:00:00 10.8 5 Oeste 35 Noroeste 3.6 -- -- 89
2019-12-12 01:00:00 10.7 8 Oeste 38 Sudoeste 1.3 -- -- 86
2019-12-12 00:00:00 10.8 16 Noroeste 52 Noroeste 3.2 -- -- 91
2019-12-11 23:00:00 10.7 9 Oeste 37 Noroeste 1.2 -- -- 82
2019-12-11 22:00:00 11.2 14 Noroeste 46 Noroeste 1.6 -- -- 86
2019-12-11 21:00:00 10.5 6 Oeste 59 Noroeste 2.7 -- -- 87
2019-12-11 20:00:00 10.6 27 Noroeste 74 Noroeste 3.6 -- -- 90
2019-12-11 19:00:00 11.2 19 Noroeste 63 Noroeste 1.3 -- -- 73
2019-12-11 18:00:00 12.5 6 Oeste 29 Oeste 0 -- -- 55
2019-12-11 17:00:00 12.3 4 Sudoeste -- -- -- -- -- 59
2019-12-11 16:00:00 12 0 Calma 29 Noroeste 0 -- -- 68
2019-12-11 15:00:00 12.6 9 Noroeste 54 Noroeste 0.2 -- -- 71
2019-12-11 14:00:00 12.5 9 Oeste 24 Noroeste 0 -- -- 71
2019-12-11 13:00:00 10.7 8 Noroeste 44 Noroeste 0.2 -- -- 81
2019-12-11 12:00:00 11.1 9 Oeste 34 Oeste 0 -- -- 78
2019-12-11 11:00:00 10.9 8 Oeste 58 Noroeste 0.2 -- -- 80
2019-12-11 10:00:00 10.5 45 Noroeste 78 Noroeste 2.3 -- -- 95
2019-12-11 09:00:00 11.3 27 Noroeste 55 Noroeste 1.2 -- -- 93
2019-12-11 08:00:00 12.8 36 Noroeste 57 Noroeste 0 -- -- 88
2019-12-11 07:00:00 14.4 9 Noroeste 41 Noroeste 0.1 -- -- 54
2019-12-11 06:00:00 13.8 4 Sur 18 Sur 0 -- -- 52
2019-12-11 05:00:00 13.7 10 Sudoeste 27 Sur 0 -- -- 52
2019-12-11 04:00:00 13.3 10 Sudoeste 21 Sur 0 -- -- 53
2019-12-11 03:00:00 13.5 12 Sur 21 Sudoeste 0 -- -- 55
2019-12-11 02:00:00 13.5 10 Sur 22 Sudoeste 0 -- -- 55
2019-12-11 01:00:00 12.6 14 Sur 22 Sur 0 -- -- 62
2019-12-11 00:00:00 12.6 11 Sur 20 Sur 0 -- -- 64
2019-12-10 23:00:00 12.1 10 Sur 18 Sur 0 -- -- 66
2019-12-10 22:00:00 12 12 Sur 15 Sudoeste 0 -- -- 69
2019-12-10 21:00:00 11.5 10 Sur 14 Sudoeste 0 -- -- 74
2019-12-10 20:00:00 11.3 9 Sur 16 Sur 0 -- -- 78
2019-12-10 19:00:00 11 0 Calma 8 Sudeste 0 -- -- 82
2019-12-10 18:00:00 12.1 0 Calma -- -- 0 -- -- 78
2019-12-10 17:00:00 13.5 0 Calma 10 Nordeste 0 -- -- 72
2019-12-10 16:00:00 14.2 4 Nordeste 13 Este 0 -- -- 67
2019-12-10 15:00:00 14.8 9 Nordeste 18 Nordeste 0.1 -- -- 66
2019-12-10 14:00:00 17 2 Nordeste 10 Este 0 -- -- 63
2019-12-10 13:00:00 16.1 0 Calma 9 Sur 0 -- -- 65
2019-12-10 12:00:00 14.8 0 Calma 13 Sur 0 -- -- 71
2019-12-10 11:00:00 12.7 8 Sur 15 Sudoeste 0 -- -- 82
2019-12-10 10:00:00 10.6 8 Sur 13 Sudoeste 0 -- -- 93
2019-12-10 09:00:00 8.9 9 Sur 14 Sur 0 -- -- 94
2019-12-10 08:00:00 9.2 11 Sur 16 Sur 0.1 -- -- 95
2019-12-10 07:00:00 9 8 Sur 15 Sur 0 -- -- 94
2019-12-10 06:00:00 9.1 8 Sur 12 Sudoeste 0 -- -- 93
2019-12-10 05:00:00 9.7 9 Sur 12 Sur 0 -- -- 91
2019-12-10 04:00:00 10.4 4 Sur 10 Sur 0 -- -- 88
2019-12-10 03:00:00 10.7 3 Sur 9 Sudeste 0 -- -- 85
2019-12-10 02:00:00 11.2 0 Calma 18 Noroeste 0 -- -- 83
2019-12-10 01:00:00 12 10 Noroeste 45 Noroeste 0 -- -- 81
2019-12-10 00:00:00 12.6 22 Noroeste 48 Noroeste 0 -- -- 74
2019-12-09 23:00:00 12.6 35 Noroeste 50 Noroeste 0.1 -- -- 79
2019-12-09 22:00:00 12.8 26 Noroeste 52 Noroeste 0 -- -- 76
2019-12-09 21:00:00 11.9 34 Noroeste 58 Noroeste 0 -- -- 84
2019-12-09 20:00:00 12.2 30 Noroeste 63 Noroeste 0 -- -- 85
2019-12-09 19:00:00 13.1 40 Noroeste 58 Noroeste 0 -- -- 75
2019-12-09 18:00:00 12.7 39 Noroeste 60 Noroeste 0 -- -- 79
2019-12-09 17:00:00 12.9 35 Noroeste 66 Noroeste 0.1 -- -- 75
2019-12-09 16:00:00 13.2 40 Noroeste 65 Noroeste 0 -- -- 75
2019-12-09 15:00:00 13.9 38 Noroeste 65 Noroeste 0 -- -- 71
2019-12-09 14:00:00 13.6 44 Noroeste 69 Noroeste 0 -- -- 73
2019-12-09 13:00:00 13.6 51 Noroeste 73 Noroeste 0 -- -- 71
2019-12-09 12:00:00 13.8 53 Noroeste 78 Noroeste 0.1 -- -- 75
2019-12-09 11:00:00 13.3 24 Noroeste 69 Noroeste 0 -- -- 75
2019-12-09 10:00:00 13 20 Noroeste 54 Noroeste 0 -- -- 74
2019-12-09 09:00:00 12 13 Oeste 54 Noroeste 0.2 -- -- 82
2019-12-09 08:00:00 12.2 28 Noroeste 49 Noroeste 0.5 -- -- 83
2019-12-09 07:00:00 12 22 Noroeste 76 Noroeste 0.4 -- -- 87
2019-12-09 06:00:00 13.3 17 Oeste 45 Noroeste 0.1 -- -- 69
2019-12-09 05:00:00 13.1 12 Oeste 38 Noroeste 0 -- -- 68
2019-12-09 04:00:00 12.9 9 Oeste 41 Noroeste 0 -- -- 72
2019-12-09 03:00:00 12.8 5 Oeste 25 Oeste 0 -- -- 71
2019-12-09 02:00:00 12.8 6 Oeste 22 Oeste 0.2 -- -- 72
2019-12-09 01:00:00 12.7 6 Oeste 22 Oeste 0 -- -- 72
2019-12-09 00:00:00 13 0 Calma 21 Oeste 0 -- -- 72
2019-12-08 23:00:00 13 4 Oeste 27 Oeste 0.1 -- -- 74
2019-12-08 22:00:00 13 6 Oeste 21 Sudoeste 0 -- -- 76
2019-12-08 21:00:00 12.4 7 Sudoeste 26 Noroeste 0.2 -- -- 77
2019-12-08 20:00:00 13.1 6 Noroeste 23 Noroeste 0 -- -- 77
2019-12-08 19:00:00 13.5 12 Noroeste 37 Noroeste 0.1 -- -- 83
2019-12-08 18:00:00 13.8 18 Noroeste 58 Noroeste 1 -- -- 91
2019-12-08 17:00:00 14.2 19 Noroeste 41 Noroeste 0.5 -- -- 94
2019-12-08 16:00:00 14.1 7 Oeste 21 Oeste 1 -- -- 94
2019-12-08 15:00:00 13.1 3 Sudoeste 18 Sur 0.5 -- -- 93
2019-12-08 14:00:00 13.4 13 Sur 26 Sur 0.2 -- -- 89
2019-12-08 13:00:00 14.4 6 Sur 22 Sur 0.1 -- -- 81
2019-12-08 12:00:00 14.2 14 Sur 24 Sur 0.1 -- -- 73
2019-12-08 11:00:00 14.2 15 Sur 26 Sur 0 -- -- 70
2019-12-08 10:00:00 13.5 13 Sur 22 Sur 0 -- -- 74
2019-12-08 09:00:00 11.9 12 Sur 21 Sur 0 -- -- 80
2019-12-08 08:00:00 10.8 13 Sur 21 Sudoeste 0 -- -- 84
2019-12-08 07:00:00 9.7 13 Sur 18 Sudoeste 0 -- -- 87
2019-12-08 06:00:00 10.4 3 Oeste 11 Sur 0 -- -- 90
2019-12-08 05:00:00 9 11 Sur 18 Sur 0 -- -- 94
2019-12-08 04:00:00 9.4 13 Sur 21 Sur 0 -- -- 94
2019-12-08 03:00:00 9.1 11 Sur 19 Sur 0 -- -- 94
2019-12-08 02:00:00 9.5 15 Sur 17 Sur 0 -- -- 94
2019-12-08 01:00:00 9.4 8 Sur 15 Sur 0 -- -- 93
2019-12-08 00:00:00 10 9 Sur 15 Sur 0 -- -- 92
2019-12-07 23:00:00 10.2 12 Sur 14 Sur 0 -- -- 91
2019-12-07 22:00:00 10.7 9 Sur 13 Sur 0 -- -- 90
2019-12-07 21:00:00 11.6 8 Sur 13 Sur 0 -- -- 87
2019-12-07 20:00:00 12.5 3 Sur 11 Sur 0 -- -- 83
2019-12-07 19:00:00 12.9 7 Sur 9 Sur 0 -- -- 80
2019-12-07 18:00:00 13.6 6 Sur 8 Sur 0 -- -- 80
2019-12-07 17:00:00 14 0 Calma 13 Nordeste 0 -- -- 80
2019-12-07 16:00:00 15.4 4 Nordeste 8 Nordeste 0 -- -- 74
2019-12-07 15:00:00 16.3 0 Calma 8 Nordeste 0 -- -- 75
2019-12-07 14:00:00 16.6 5 Nordeste 10 Nordeste 0 -- -- 68
2019-12-07 13:00:00 14.7 0 Calma 11 Sur 0 -- -- 76
2019-12-07 12:00:00 12.4 10 Sur 14 Sudoeste 0 -- -- 85
2019-12-07 11:00:00 10.1 10 Sur 15 Sur 0 -- -- 95
2019-12-07 10:00:00 8.3 12 Sur 18 Sur 0 -- -- 97
2019-12-07 09:00:00 7 17 Sur 19 Sudoeste 0 -- -- 97
2019-12-07 08:00:00 6.7 14 Sur 18 Sur 0 -- -- 97
2019-12-07 07:00:00 7 15 Sur 18 Sur 0 -- -- 97
2019-12-07 06:00:00 7.3 14 Sur 18 Sur 0 -- -- 97
2019-12-07 05:00:00 7.7 13 Sur 15 Sur 0 -- -- 97
2019-12-07 04:00:00 8.1 12 Sur 17 Sudoeste 0 -- -- 97
2019-12-07 03:00:00 8.3 10 Sur 15 Sur 0 -- -- 96
2019-12-07 02:00:00 8.8 12 Sur 14 Sur 0 -- -- 96
2019-12-07 01:00:00 9 11 Sur 14 Sudoeste 0 -- -- 96
2019-12-07 00:00:00 9 10 Sur 14 Sur 0 -- -- 96
2019-12-06 23:00:00 8.8 9 Sur 13 Sur 0 -- -- 96
2019-12-06 22:00:00 8.9 12 Sur 15 Sur 0 -- -- 96
2019-12-06 21:00:00 10 7 Sur 15 Sur 0 -- -- 95
2019-12-06 20:00:00 10.2 10 Sur 13 Sur 0 -- -- 92
2019-12-06 19:00:00 11.5 0 Calma 12 Noroeste 0 -- -- 88
2019-12-06 18:00:00 12.4 7 Noroeste 21 Noroeste 0 -- -- 84
2019-12-06 17:00:00 13.1 0 Calma 9 Norte 0 -- -- 80
2019-12-06 16:00:00 14.6 0 Calma 14 Norte 0 -- -- 75
2019-12-06 15:00:00 15.3 6 Nordeste 12 Norte 0 -- -- 73
2019-12-06 14:00:00 14.9 8 Norte 27 Sudoeste 0 -- -- 73
2019-12-06 13:00:00 14.2 4 Sudoeste 22 Sur 0 -- -- 72
2019-12-06 12:00:00 14.4 3 Sur 10 Sudoeste 0 -- -- 73
2019-12-06 11:00:00 10.6 0 Calma 15 Sudeste 0 -- -- 89
2019-12-06 10:00:00 9 12 Sudoeste 21 Sudoeste 0 -- -- 98
2019-12-06 09:00:00 6.5 13 Sur 20 Sur 0 -- -- 98
2019-12-06 08:00:00 6.6 14 Sur 19 Sur 0 -- -- 99
2019-12-06 07:00:00 6.8 13 Sur 18 Sur 0 -- -- 98
2019-12-06 06:00:00 7.1 14 Sur 18 Sur 0 -- -- 98
2019-12-06 05:00:00 7.1 13 Sur 16 Sur 0 -- -- 98
2019-12-06 04:00:00 7.5 12 Sur 15 Sur 0 -- -- 98
2019-12-06 03:00:00 7.7 9 Sur 13 Sur 0 -- -- 98
2019-12-06 02:00:00 8 11 Sur 15 Sur 0 -- -- 97
2019-12-06 01:00:00 8.3 10 Sur 13 Sur 0 -- -- 96
2019-12-06 00:00:00 8.5 9 Sur 12 Sur 0 -- -- 95
2019-12-05 23:00:00 9.1 9 Sur 13 Sur 0 -- -- 94
2019-12-05 22:00:00 9.8 9 Sur 12 Sur 0 -- -- 93
2019-12-05 21:00:00 10.3 8 Sur 11 Sur 0 -- -- 91
2019-12-05 20:00:00 10.8 0 Calma 10 Noroeste 0 -- -- 87
2019-12-05 19:00:00 12 10 Norte 21 Norte 0 -- -- 86
2019-12-05 18:00:00 11.7 11 Noroeste 19 Noroeste 0 -- -- 85
2019-12-05 17:00:00 12.3 5 Noroeste 21 Norte 0 -- -- 85
2019-12-05 16:00:00 13.3 14 Noroeste 21 Norte 0 -- -- 85
2019-12-05 15:00:00 13.6 9 Norte 30 Noroeste 0 -- -- 82
2019-12-05 14:00:00 15.2 0 Calma 14 Noroeste 0 -- -- 74
2019-12-05 13:00:00 13.6 3 Noroeste 12 Noroeste 0 -- -- 78
2019-12-05 12:00:00 13.2 0 Calma 6 Sur 0 -- -- 82
2019-12-05 11:00:00 12 0 Calma 8 Sur 0 -- -- 90
2019-12-05 10:00:00 10.5 3 Sur 8 Sur 0 -- -- 95
2019-12-05 09:00:00 9.3 7 Sur 10 Sur 0 -- -- 95
2019-12-05 08:00:00 9.1 6 Sur 11 Sur 0 -- -- 94
2019-12-05 07:00:00 8.8 0 Calma 9 Sur 0 -- -- 93
2019-12-05 06:00:00 9 0 Calma 13 Norte 0 -- -- 92
2019-12-05 05:00:00 9.5 9 Nordeste 17 Norte 0 -- -- 93
2019-12-05 04:00:00 8.9 0 Calma -- -- 0 -- -- 92
2019-12-05 03:00:00 8.8 0 Calma 8 Sur 0 -- -- 92
2019-12-05 02:00:00 9 6 Sur 9 Sur 0 -- -- 92
2019-12-05 01:00:00 9.1 0 Calma 5 Sur 0 -- -- 90
2019-12-05 00:00:00 9 0 Calma 12 Sur 0 -- -- 89
2019-12-04 23:00:00 9.5 0 Calma 19 Norte 0 -- -- 86
2019-12-04 22:00:00 9.7 5 Nordeste 18 Nordeste 0 -- -- 85
2019-12-04 21:00:00 9.4 5 Norte 22 Norte 0 -- -- 84
2019-12-04 20:00:00 9.4 13 Norte 36 Norte 0 -- -- 87
2019-12-04 19:00:00 9.8 22 Norte 38 Norte 0 -- -- 88
2019-12-04 18:00:00 10.7 24 Norte 42 Noroeste 0 -- -- 84
2019-12-04 17:00:00 11.2 31 Noroeste 45 Noroeste 0 -- -- 84
2019-12-04 16:00:00 11.1 20 Noroeste 32 Noroeste 0 -- -- 84
2019-12-04 15:00:00 11 10 Noroeste 18 Noroeste 0 -- -- 83
2019-12-04 14:00:00 11.9 6 Norte 19 Noroeste 0 -- -- 82
2019-12-04 13:00:00 11.4 5 Noroeste 14 Noroeste 0 -- -- 86
2019-12-04 12:00:00 10.3 0 Calma 11 Sudoeste 0 -- -- 92
2019-12-04 11:00:00 7.8 8 Sur 16 Sur 0 -- -- 99
2019-12-04 10:00:00 6.2 10 Sur 17 Sur 0 -- -- 99
2019-12-04 09:00:00 3.3 13 Sur 21 Sudoeste 0 -- -- 99
2019-12-04 08:00:00 2.6 14 Sur 18 Sur 0 -- -- 99
2019-12-04 07:00:00 2.7 14 Sur 18 Sur 0 -- -- 99
2019-12-04 06:00:00 3 13 Sur 17 Sur 0.1 -- -- 99
2019-12-04 05:00:00 3 13 Sudoeste 18 Sur 0 -- -- 99
2019-12-04 04:00:00 2.9 15 Sur 19 Sur 0 -- -- 98
2019-12-04 03:00:00 3.1 13 Sur 17 Sur 0 -- -- 98
2019-12-04 02:00:00 3.1 11 Sur 15 Sur 0 -- -- 97
2019-12-04 01:00:00 3.9 12 Sur 15 Sur 0 -- -- 98
2019-12-04 00:00:00 3.6 11 Sur 14 Sur 0 -- -- 96
2019-12-03 23:00:00 4.1 11 Sur 14 Sur 0 -- -- 97
2019-12-03 22:00:00 4.6 10 Sur 12 Sur 0 -- -- 97
2019-12-03 21:00:00 4.5 8 Sur 13 Sur 0 -- -- 95
2019-12-03 20:00:00 5.4 10 Sur 15 Sur 0 -- -- 94
2019-12-03 19:00:00 6.3 9 Sur 12 Sur 0 -- -- 91
2019-12-03 18:00:00 6.7 0 Calma 5 Sudeste 0 -- -- 85
2019-12-03 17:00:00 7.8 2 Sudeste 15 Sudeste 0 -- -- 80
2019-12-03 16:00:00 8.3 7 Este 15 Este 0 -- -- 76
2019-12-03 15:00:00 10.9 2 Este 14 Este 0 -- -- 77
2019-12-03 14:00:00 9.4 6 Este 15 Este 0 -- -- 83
2019-12-03 13:00:00 8.4 6 Este 15 Este 0 -- -- 91
2019-12-03 12:00:00 7.3 0 Calma 15 Este 0 -- -- 95
2019-12-03 11:00:00 6.7 9 Este 18 Este 0 -- -- 97
2019-12-03 10:00:00 6.6 0 Calma -- -- 0 -- -- 98
2019-12-03 09:00:00 6.9 0 Calma 11 Sur 0 -- -- 98
2019-12-03 08:00:00 6.5 7 Sur 11 Sur 0 -- -- 98
2019-12-03 07:00:00 6.7 6 Sur 13 Sur 0 -- -- 97
2019-12-03 06:00:00 6.4 7 Sur 13 Sudeste 0 -- -- 97
2019-12-03 05:00:00 6.7 7 Sur 12 Sur 0 -- -- 97
2019-12-03 04:00:00 7.1 8 Sur 10 Sur 0.1 -- -- 95
2019-12-03 03:00:00 6.9 5 Sur 13 Sur 0.8 -- -- 93
2019-12-03 02:00:00 7.4 4 Sur 28 Nordeste 1 -- -- 88
2019-12-03 01:00:00 8.6 15 Nordeste 31 Nordeste 0 -- -- 82
2019-12-03 00:00:00 8.7 6 Nordeste 35 Nordeste 0 -- -- 79
2019-12-02 23:00:00 8.9 17 Nordeste 33 Nordeste 0 -- -- 77
2019-12-02 22:00:00 9.1 24 Nordeste 41 Nordeste 0 -- -- 78
2019-12-02 21:00:00 9 25 Norte 44 Norte 0 -- -- 77
2019-12-02 20:00:00 9.7 23 Norte 40 Nordeste 0 -- -- 79
2019-12-02 19:00:00 9.4 16 Norte 31 Norte 0 -- -- 78
2019-12-02 18:00:00 9.3 14 Norte 35 Noroeste 0 -- -- 76
2019-12-02 17:00:00 9.3 29 Norte 37 Norte 0 -- -- 79
2019-12-02 16:00:00 9.4 21 Norte 37 Norte 0 -- -- 84
2019-12-02 15:00:00 9.5 26 Norte 76 Norte 0 -- -- 85
2019-12-02 14:00:00 10.1 23 Nordeste 42 Nordeste 0 -- -- 86
2019-12-02 13:00:00 10.5 33 Nordeste 51 Nordeste 0 -- -- 93
2019-12-02 12:00:00 10.4 38 Norte 50 Norte 2.4 -- -- 99
2019-12-02 11:00:00 10.6 0 Calma 9 Sur 4.1 -- -- 99
2019-12-02 10:00:00 10.2 3 Sur 13 Sur 1.4 -- -- 99
2019-12-02 09:00:00 9.8 7 Sur 12 Sur 4.2 -- -- 99
2019-12-02 08:00:00 9.8 7 Sur 15 Sur 2.1 -- -- 99
2019-12-02 07:00:00 10.1 6 Sudeste 13 Sudeste 0.2 -- -- 99
2019-12-02 06:00:00 10.1 0 Calma 16 Sudeste 0.4 -- -- 99
2019-12-02 05:00:00 10.4 7 Sur 18 Sudeste 0 -- -- 99
2019-12-02 04:00:00 10.6 10 Sudeste 22 Este 0.3 -- -- 99
2019-12-02 03:00:00 9.9 8 Sur 12 Sur 0 -- -- 98
2019-12-02 02:00:00 10.2 6 Sur 13 Sur 0.1 -- -- 98
2019-12-02 01:00:00 10.4 6 Sur 15 Sur 2.5 -- -- 97
2019-12-02 00:00:00 10.4 6 Sur 16 Sudoeste 3.3 -- -- 96
2019-12-01 23:00:00 10.8 8 Sur 14 Sudoeste 4.9 -- -- 94
2019-12-01 22:00:00 11.1 8 Sur 15 Sudeste 0 -- -- 90
2019-12-01 21:00:00 12 6 Sur 33 Nordeste 0 -- -- 86
2019-12-01 20:00:00 12.9 23 Norte 49 Norte 0.1 -- -- 83
2019-12-01 19:00:00 11.5 8 Sur 10 Sur 0.7 -- -- 87
2019-12-01 18:00:00 11.7 0 Calma 6 Norte 0 -- -- 78
2019-12-01 17:00:00 13.2 5 Noroeste 13 Norte 0 -- -- 71
2019-12-01 16:00:00 14.4 11 Noroeste 18 Noroeste 0 -- -- 67
2019-12-01 15:00:00 16.1 0 Calma 4 Norte 0 -- -- 62
2019-12-01 14:00:00 17 0 Calma 6 Nordeste 0 -- -- 62
2019-12-01 13:00:00 15.7 0 Calma 2 Norte 0 -- -- 68
2019-12-01 12:00:00 14.6 0 Calma 10 Norte 0 -- -- 71
2019-12-01 11:00:00 13.5 4 Norte 12 Nordeste 0 -- -- 72
2019-12-01 10:00:00 13.4 0 Calma 11 Sudeste 0 -- -- 68
2019-12-01 09:00:00 12 0 Calma 20 Sur 0 -- -- 67
2019-12-01 08:00:00 11.9 17 Sur 32 Sur 0 -- -- 71
2019-12-01 07:00:00 11.4 21 Sur 39 Sur 0 -- -- 71
2019-12-01 06:00:00 10.6 21 Sur 38 Sur 0 -- -- 79
2019-12-01 05:00:00 9.6 12 Sudoeste 21 Sudoeste 0 -- -- 89
2019-12-01 04:00:00 8.4 4 Sur 19 Sur 0 -- -- 96
2019-12-01 03:00:00 8.4 11 Sudoeste 18 Sudoeste 0 -- -- 97
2019-12-01 02:00:00 8.5 9 Sur 17 Sur 0 -- -- 97
2019-12-01 01:00:00 8.4 14 Sur 21 Sur 0 -- -- 97
2019-12-01 00:00:00 8.4 11 Sur 17 Sur 0 -- -- 97
2019-11-30 23:00:00 8.9 11 Sur 15 Sur 0 -- -- 97
2019-11-30 22:00:00 9.7 10 Sur 17 Sur 0 -- -- 98
2019-11-30 21:00:00 10 11 Sur 15 Sudoeste 0 -- -- 98
2019-11-30 20:00:00 10.4 9 Sur 17 Sur 0 -- -- 98
2019-11-30 19:00:00 10.5 11 Sur 27 Sur 0.2 -- -- 98
2019-11-30 18:00:00 11.3 9 Sur 15 Sur 0.3 -- -- 97
2019-11-30 17:00:00 11.7 12 Sur 16 Sur 3.4 -- -- 97
2019-11-30 16:00:00 12.2 6 Sur 13 Sudeste 3.5 -- -- 97
2019-11-30 15:00:00 12.4 0 Calma 16 Sur 3.9 -- -- 96
2019-11-30 14:00:00 12.3 2 Oeste 31 Noroeste 2.5 -- -- 97
2019-11-30 13:00:00 12.8 23 Noroeste 51 Noroeste 2 -- -- 97
2019-11-30 12:00:00 13.2 41 Noroeste 64 Noroeste 0.6 -- -- 94
2019-11-30 11:00:00 17.4 11 Oeste 48 Sudoeste 0 -- -- 67
2019-11-30 10:00:00 19.1 24 Sur 59 Sur 0 -- -- 59
2019-11-30 09:00:00 17.9 39 Sudoeste 63 Sur 0 -- -- 63
2019-11-30 08:00:00 17.6 34 Sur 64 Sur 0 -- -- 65
2019-11-30 07:00:00 15.9 36 Sur 63 Sur 0 -- -- 67
2019-11-30 06:00:00 16.7 17 Sur 46 Sur 0.1 -- -- 59
2019-11-30 05:00:00 15.9 22 Sur 46 Sur 0 -- -- 65
2019-11-30 04:00:00 13.7 18 Sur 26 Sur 0 -- -- 85
2019-11-30 03:00:00 11.2 0 Calma 13 Sudoeste 0 -- -- 97
2019-11-30 02:00:00 9.6 9 Sur 12 Sur 0 -- -- 97
2019-11-30 01:00:00 9.4 8 Sur 13 Sur 0 -- -- 96
2019-11-30 00:00:00 9.9 9 Sur 16 Sur 0 -- -- 97
2019-11-29 23:00:00 10.5 10 Sur 16 Sur 0 -- -- 97
2019-11-29 22:00:00 10.4 9 Sur 14 Sur 0 -- -- 97
2019-11-29 21:00:00 10.7 11 Sur 13 Sur 0 -- -- 95
2019-11-29 20:00:00 10.8 9 Sur 14 Sur 0 -- -- 93
2019-11-29 19:00:00 11.9 9 Sur 14 Sur 0 -- -- 90
2019-11-29 18:00:00 13.2 6 Sudoeste 9 Sudoeste 0 -- -- 83
2019-11-29 17:00:00 15.5 0 Calma 14 Nordeste 0 -- -- 77
2019-11-29 16:00:00 15.2 5 Nordeste 14 Nordeste 0 -- -- 73
2019-11-29 15:00:00 16.4 5 Este 14 Nordeste 0 -- -- 73
2019-11-29 14:00:00 17.1 0 Calma 8 Nordeste 0 -- -- 73
2019-11-29 13:00:00 16.5 0 Calma -- -- 0 -- -- 82
2019-11-29 12:00:00 14.9 0 Calma -- -- 0 -- -- 98
2019-11-29 11:00:00 14 3 Sur 10 Sudoeste 0 -- -- 99
2019-11-29 10:00:00 12.7 6 Sur 12 Sudoeste 0 -- -- 99
2019-11-29 09:00:00 11.8 0 Calma 13 Oeste 0 -- -- 99
2019-11-29 08:00:00 11.6 9 Sudoeste 13 Sudoeste 0 -- -- 99
2019-11-29 07:00:00 11.5 10 Sudoeste 12 Sudoeste 0 -- -- 99
2019-11-29 06:00:00 12.2 0 Calma -- -- 0 -- -- 99
2019-11-29 05:00:00 12.5 0 Calma -- -- 0 -- -- 99
2019-11-29 04:00:00 12.7 0 Calma 0 Calma 0 -- -- 99
2019-11-29 03:00:00 12.4 0 Calma -- -- 0 -- -- 99
2019-11-29 02:00:00 12.2 0 Calma 10 Sudoeste 0.5 -- -- 99
2019-11-29 01:00:00 12.4 3 Sur 16 Oeste 0.1 -- -- 99
2019-11-29 00:00:00 12.9 6 Oeste 13 Oeste 0.2 -- -- 99
2019-11-28 23:00:00 12 0 Calma 6 Noroeste 0.1 -- -- 99
2019-11-28 22:00:00 12 0 Calma 14 Sur 0 -- -- 99
2019-11-28 21:00:00 12 10 Sur 17 Sur 0 -- -- 98
2019-11-28 20:00:00 12.3 9 Sur 15 Sudeste 2.3 -- -- 97
2019-11-28 19:00:00 12.1 7 Sur 17 Sur 1.1 -- -- 96
2019-11-28 18:00:00 12.5 5 Sur 15 Norte 5.1 -- -- 93
2019-11-28 17:00:00 13 11 Noroeste 33 Noroeste 0.7 -- -- 89
2019-11-28 16:00:00 14.1 0 Calma -- -- 0.4 -- -- 87
2019-11-28 15:00:00 14.4 0 Calma -- -- 0 -- -- 84
2019-11-28 14:00:00 14.6 0 Calma -- -- 0 -- -- 87
2019-11-28 13:00:00 14.3 0 Calma 11 Sudoeste 0 -- -- 88
2019-11-28 12:00:00 14 4 Sudoeste 17 Sur 0 -- -- 91
2019-11-28 11:00:00 13.4 6 Sur 22 Sudoeste 0 -- -- 94
2019-11-28 10:00:00 12.5 0 Calma 17 Noroeste 0 -- -- 94
2019-11-28 09:00:00 13 13 Noroeste 26 Noroeste 0 -- -- 96
2019-11-28 08:00:00 11.8 6 Sudoeste 12 Sudoeste 0.4 -- -- 97
2019-11-28 07:00:00 11.5 9 Sudoeste 12 Sudoeste 0 -- -- 96
2019-11-28 06:00:00 11.8 8 Sur 11 Sudoeste 0.3 -- -- 93
2019-11-28 05:00:00 13 7 Oeste 13 Oeste 0.1 -- -- 91
2019-11-28 04:00:00 11 6 Sudoeste 11 Sudoeste 0 -- -- 95
2019-11-28 03:00:00 11.5 0 Calma 11 Sudoeste 0 -- -- 93
2019-11-28 02:00:00 11.9 6 Sudoeste 10 Sudoeste 0 -- -- 92
2019-11-28 01:00:00 11.9 0 Calma 8 Sudoeste 0 -- -- 92
2019-11-28 00:00:00 12.3 5 Sur 9 Sudoeste 0 -- -- 92
2019-11-27 23:00:00 12.3 0 Calma 19 Sudoeste 0 -- -- 93
2019-11-27 22:00:00 12.5 9 Sur 15 Sur 0 -- -- 93
2019-11-27 21:00:00 12.7 6 Sur 15 Sudoeste 0 -- -- 93
2019-11-27 20:00:00 12.9 13 Sur 28 Sur 0 -- -- 94
2019-11-27 19:00:00 12.6 15 Sur 32 Sur 0.9 -- -- 93
2019-11-27 18:00:00 13 4 Oeste 52 Noroeste 1 -- -- 87
2019-11-27 17:00:00 16.9 8 Sudoeste 21 Sudoeste 0 -- -- 56
2019-11-27 16:00:00 16.8 8 Sudoeste 17 Sudoeste 0 -- -- 57
2019-11-27 15:00:00 17 4 Sudoeste 17 Sudoeste 0 -- -- 55
2019-11-27 14:00:00 17.7 4 Sudoeste 20 Sudoeste 0 -- -- 55
2019-11-27 06:00:00 10.5 9 Sur 14 Sudoeste 0 -- -- 97
2019-11-27 05:00:00 11.2 8 Sudoeste 12 Sudoeste 0 -- -- 97
2019-11-27 04:00:00 11.5 0 Calma 13 Sudoeste 0 -- -- 96
2019-11-27 03:00:00 11.8 9 Sudoeste 10 Sudoeste 0 -- -- 95
2019-11-27 02:00:00 12.3 6 Sur 13 Sudoeste 0 -- -- 93
2019-11-27 01:00:00 13.3 0 Calma 10 Sur 0 -- -- 91
2019-11-27 00:00:00 13.9 0 Calma 23 Noroeste 0 -- -- 88
2019-11-26 23:00:00 14.5 19 Noroeste 67 Noroeste 0 -- -- 88
2019-11-26 22:00:00 16 45 Noroeste 69 Noroeste 0 -- -- 70
2019-11-26 21:00:00 20.1 16 Sudoeste 48 Sudoeste 0 -- -- 55
2019-11-26 20:00:00 18.5 9 Sudoeste 52 Sudoeste 0 -- -- 64
2019-11-26 19:00:00 19 26 Sur 51 Sur 0 -- -- 60
2019-11-26 18:00:00 19.1 23 Sur 47 Sur 0 -- -- 59
2019-11-26 17:00:00 19.8 16 Sur 28 Sur 0 -- -- 57
2019-11-26 16:00:00 20.4 21 Sur 43 Sur 0 -- -- 56
2019-11-26 15:00:00 20.5 12 Sur 53 Sudoeste 0 -- -- 56
2019-11-26 14:00:00 21.1 22 Sudoeste 68 Sur 0 -- -- 57
2019-11-26 13:00:00 21.1 25 Sur 74 Sudoeste 0 -- -- 57
2019-11-26 12:00:00 20.2 44 Sudoeste 73 Sudoeste 0 -- -- 58
2019-11-26 11:00:00 21.2 49 Sudoeste 75 Sudoeste 0 -- -- 58
2019-11-26 10:00:00 19.4 32 Sur 54 Sur 0 -- -- 59
2019-11-26 09:00:00 18.5 32 Sur 60 Sur 0 -- -- 62
2019-11-26 08:00:00 17.8 37 Sur 68 Sudoeste 0 -- -- 60
2019-11-26 07:00:00 17.3 37 Sur 67 Sudoeste 0 -- -- 60
2019-11-26 06:00:00 17.1 35 Sur 63 Sur 0 -- -- 60
2019-11-26 05:00:00 16.4 19 Sur 40 Sur 0 -- -- 63
2019-11-26 04:00:00 15.4 17 Sur 27 Sur 0 -- -- 71
2019-11-26 03:00:00 12.6 0 Calma 9 Noroeste 0 -- -- 96
2019-11-26 02:00:00 11.9 4 Sur 10 Sur 0 -- -- 98
2019-11-26 01:00:00 10.5 8 Sudoeste 13 Sur 0 -- -- 97
2019-11-26 00:00:00 11.2 9 Sur 14 Sudoeste 0 -- -- 96
2019-11-25 23:00:00 11.6 10 Sudoeste 15 Sur 0 -- -- 95
2019-11-25 22:00:00 12.9 8 Sur 12 Sur 0 -- -- 93
2019-11-25 21:00:00 13.8 7 Sur 12 Sur 0 -- -- 90
2019-11-25 20:00:00 14.1 6 Sur 8 Sur 0 -- -- 88
2019-11-25 19:00:00 15 6 Sur 10 Sur 0 -- -- 86
2019-11-25 18:00:00 15.2 4 Sur 6 Sur 0 -- -- 83
2019-11-25 17:00:00 15.7 0 Calma 5 Sudeste 0 -- -- 80
2019-11-25 16:00:00 16.6 0 Calma 8 Noroeste 0 -- -- 78
2019-11-25 15:00:00 16.9 0 Calma 7 Noroeste 0 -- -- 77
2019-11-25 14:00:00 16.2 2 Oeste 13 Noroeste 0 -- -- 83
2019-11-25 13:00:00 16.6 10 Noroeste 18 Noroeste 0 -- -- 80
2019-11-25 12:00:00 16.6 2 Noroeste 8 Noroeste 0 -- -- 78
2019-11-25 11:00:00 16.1 0 Calma 17 Norte 0 -- -- 78
2019-11-25 10:00:00 15 4 Este 10 Sudoeste 0 -- -- 81
2019-11-25 09:00:00 13.9 8 Sur 12 Sur 0 -- -- 80
2019-11-25 08:00:00 14.2 5 Sur 12 Sur 0 -- -- 76
2019-11-25 07:00:00 15.3 7 Sudoeste 39 Sur 0.1 -- -- 72
2019-11-25 06:00:00 15.3 26 Sur 40 Sur 0 -- -- 70
2019-11-25 05:00:00 15.1 24 Sur 41 Sur 0 -- -- 72
2019-11-25 04:00:00 15.2 23 Sur 39 Sur 0 -- -- 75
2019-11-25 03:00:00 14.5 19 Sur 36 Sur 0 -- -- 76
2019-11-25 02:00:00 14.1 15 Sur 29 Sudoeste 0.6 -- -- 81
2019-11-25 01:00:00 14 17 Sur 42 Sudoeste 0 -- -- 77
2019-11-25 00:00:00 12.9 29 Sur 48 Sur 0 -- -- 85
2019-11-24 23:00:00 12.1 24 Sur 43 Sur 2.2 -- -- 89
2019-11-24 22:00:00 13.4 21 Sur 39 Sur 1.1 -- -- 73
2019-11-24 21:00:00 13.4 18 Sudoeste 30 Sudoeste 0 -- -- 66
2019-11-24 20:00:00 13.4 14 Sur 30 Sudoeste 0 -- -- 67
2019-11-24 19:00:00 12.6 10 Sur 20 Sur 0 -- -- 68
2019-11-24 18:00:00 12.4 2 Sur 22 Sur 0 -- -- 70
2019-11-24 17:00:00 13.4 15 Sur 28 Sur 0 -- -- 71
2019-11-24 16:00:00 14.4 12 Sur 20 Sur 0 -- -- 71
2019-11-24 15:00:00 14.1 8 Sur 19 Sur 0 -- -- 73
2019-11-24 14:00:00 13.2 14 Sur 22 Sur 0 -- -- 77
2019-11-24 13:00:00 13.6 6 Sudoeste 16 Sudoeste 0 -- -- 78
2019-11-24 12:00:00 13.1 6 Sudoeste 19 Sudoeste 0 -- -- 79
2019-11-24 11:00:00 12 3 Sudoeste 16 Oeste 0 -- -- 85
2019-11-24 10:00:00 11.9 5 Sudoeste 27 Noroeste 0.7 -- -- 86
2019-11-24 09:00:00 12 9 Oeste 33 Oeste 2.5 -- -- 83
2019-11-24 08:00:00 12.2 15 Noroeste 36 Noroeste 0.8 -- -- 82
2019-11-24 07:00:00 12.2 9 Oeste 37 Oeste 0 -- -- 77
2019-11-24 06:00:00 11.7 10 Oeste 45 Noroeste 0.4 -- -- 85
2019-11-24 05:00:00 11.7 9 Oeste 31 Noroeste 0.2 -- -- 83
2019-11-24 04:00:00 10.7 6 Oeste 26 Sudoeste 3.1 -- -- 93
2019-11-24 03:00:00 10.6 6 Sudoeste 35 Oeste 3.3 -- -- 89
2019-11-24 02:00:00 10.3 9 Oeste 29 Oeste 0.8 -- -- 92
2019-11-24 01:00:00 10.5 14 Oeste 45 Noroeste 4.3 -- -- 90
2019-11-24 00:00:00 11.1 7 Noroeste 42 Noroeste 0.9 -- -- 86
2019-11-23 23:00:00 11.3 15 Noroeste 41 Oeste 0.4 -- -- 80
2019-11-23 22:00:00 11.8 14 Noroeste 42 Noroeste 0.1 -- -- 82
2019-11-23 21:00:00 11.7 10 Oeste 45 Noroeste 0.3 -- -- 81
2019-11-23 20:00:00 11.4 9 Oeste 42 Oeste 1.2 -- -- 83
2019-11-23 19:00:00 11.4 6 Oeste 44 Oeste 1.5 -- -- 86
2019-11-23 18:00:00 12.7 15 Noroeste 69 Noroeste 0.1 -- -- 83
2019-11-23 17:00:00 12.7 31 Noroeste 65 Noroeste 1.4 -- -- 85
2019-11-23 16:00:00 13.6 21 Noroeste 63 Noroeste 0.1 -- -- 72
2019-11-23 15:00:00 13.4 15 Oeste 72 Noroeste 0.3 -- -- 74
2019-11-23 14:00:00 12.5 34 Noroeste 87 Noroeste 0.2 -- -- 78
2019-11-23 13:00:00 11.7 44 Noroeste 94 Noroeste 2.7 -- -- 88
2019-11-23 12:00:00 13.2 31 Noroeste 80 Noroeste 0.2 -- -- 77
2019-11-23 11:00:00 12.4 26 Noroeste 83 Noroeste 0.6 -- -- 81
2019-11-23 10:00:00 12.2 39 Noroeste 89 Noroeste 1.1 -- -- 86
2019-11-23 09:00:00 11.5 29 Noroeste 81 Noroeste 3.1 -- -- 91
2019-11-23 08:00:00 12.2 19 Noroeste 69 Noroeste 3.5 -- -- 89
2019-11-23 07:00:00 12 12 Sudoeste 59 Sudoeste 2.5 -- -- 87
2019-11-23 06:00:00 11.4 18 Sudoeste 34 Sudoeste 1.6 -- -- 84
2019-11-23 05:00:00 13.1 10 Sudoeste 31 Sudoeste 0.1 -- -- 70
2019-11-23 04:00:00 14.6 12 Sudoeste 31 Sudoeste 0 -- -- 60
2019-11-23 03:00:00 14.4 14 Sudoeste 30 Sudoeste 0 -- -- 59
2019-11-23 02:00:00 14.8 13 Sur 43 Sudoeste 0 -- -- 58
2019-11-23 01:00:00 15 23 Sur 51 Sudoeste 0 -- -- 58
2019-11-23 00:00:00 15.4 25 Sudoeste 53 Sudoeste 0 -- -- 55
2019-11-22 23:00:00 15.4 29 Sudoeste 64 Sudoeste 0 -- -- 56
2019-11-22 22:00:00 16 36 Sudoeste 78 Sur 0 -- -- 53
2019-11-22 21:00:00 16.4 34 Sudoeste 78 Sudoeste 0 -- -- 56
2019-11-22 20:00:00 15.2 23 Sur 45 Sudoeste 0 -- -- 62
2019-11-22 19:00:00 14.6 20 Sudoeste 79 Sur 0 -- -- 66
2019-11-22 18:00:00 14.9 24 Sur 51 Sur 0 -- -- 62
2019-11-22 17:00:00 15.3 25 Sur 69 Sudoeste 0 -- -- 63
2019-11-22 16:00:00 15.1 36 Sur 88 Sur 0 -- -- 65
2019-11-22 15:00:00 15.1 43 Sur 79 Sur 0 -- -- 60
2019-11-22 14:00:00 16 33 Sur 96 Sur 0 -- -- 57
2019-11-22 13:00:00 15.4 39 Sur 90 Sur 0 -- -- 57
2019-11-22 12:00:00 15.8 37 Sur 72 Sur 0 -- -- 56
2019-11-22 11:00:00 14.4 28 Sur 59 Sur 0 -- -- 60
2019-11-22 10:00:00 14.1 32 Sur 60 Sur 0 -- -- 60
2019-11-22 09:00:00 13.5 24 Sur 71 Sur 0 -- -- 60
2019-11-22 08:00:00 13.2 7 Sur 40 Sur 0 -- -- 60
2019-11-22 07:00:00 13 18 Sur 39 Sur 0 -- -- 60
2019-11-22 06:00:00 12.7 24 Sur 44 Sur 0 -- -- 61
2019-11-22 05:00:00 13 15 Sur 40 Sur 0 -- -- 61
2019-11-22 04:00:00 12.4 17 Sur 37 Sur 0 -- -- 61
2019-11-22 03:00:00 12.5 14 Sur 38 Sur 0 -- -- 61
2019-11-22 02:00:00 12.7 21 Sur 40 Sur 0 -- -- 60
2019-11-22 01:00:00 12.1 20 Sur 35 Sur 0 -- -- 65
2019-11-22 00:00:00 11.2 0 Calma 22 Sur 0 -- -- 67
2019-11-21 23:00:00 10.9 17 Sur 28 Sur 0 -- -- 73
2019-11-21 22:00:00 9.5 10 Sur 20 Sur 0 -- -- 84
2019-11-21 21:00:00 9 13 Sur 18 Sur 0 -- -- 85
2019-11-21 20:00:00 10.3 7 Sur 14 Sur 0 -- -- 77
2019-11-21 19:00:00 11.9 8 Sur 10 Sur 0 -- -- 70
2019-11-21 18:00:00 13.3 2 Noroeste 19 Noroeste 0 -- -- 61
2019-11-21 17:00:00 15.7 7 Noroeste 18 Sudoeste 0 -- -- 54
2019-11-21 16:00:00 16.2 4 Sudoeste 25 Sur 0 -- -- 50
2019-11-21 15:00:00 17.9 17 Sudoeste 32 Sur 0 -- -- 49
2019-11-21 14:00:00 17.6 12 Sudoeste 28 Sudoeste 0 -- -- 50
2019-11-21 13:00:00 16.7 12 Sudoeste 30 Sudoeste 0 -- -- 52
2019-11-21 12:00:00 16 15 Sudoeste 37 Sudoeste 0 -- -- 53
2019-11-21 11:00:00 15.2 25 Sudoeste 46 Sudoeste 0 -- -- 55
2019-11-21 10:00:00 14.4 13 Sur 32 Sudeste 0 -- -- 59
2019-11-21 09:00:00 12.4 22 Sur 40 Sudoeste 0 -- -- 63
2019-11-21 08:00:00 12 21 Sur 36 Sur 0 -- -- 63
2019-11-21 07:00:00 11.6 16 Sur 44 Sur 0 -- -- 63
2019-11-21 06:00:00 11.9 27 Sur 50 Sur 0 -- -- 63
2019-11-21 05:00:00 11.6 20 Sur 39 Sur 0 -- -- 64
2019-11-21 04:00:00 11.4 14 Sur 30 Sur 0 -- -- 65
2019-11-21 03:00:00 11.6 18 Sur 37 Sudeste 0 -- -- 64
2019-11-21 02:00:00 11.4 18 Sur 52 Sudoeste 0 -- -- 63
2019-11-21 01:00:00 11.7 22 Sur 46 Sur 0 -- -- 63
2019-11-21 00:00:00 12 23 Sur 54 Sur 0 -- -- 62
2019-11-20 23:00:00 11.7 37 Sur 60 Sur 0 -- -- 62
2019-11-20 22:00:00 12.1 30 Sur 50 Sudoeste 0 -- -- 59
2019-11-20 21:00:00 12.4 22 Sudoeste 41 Sur 0 -- -- 59
2019-11-20 20:00:00 12.4 19 Sur 54 Sudoeste 0 -- -- 57
2019-11-20 19:00:00 12.7 17 Sur 39 Sur 0 -- -- 56
2019-11-20 18:00:00 12.8 15 Sur 35 Sudoeste 0 -- -- 55
2019-11-20 17:00:00 13.4 21 Sur 37 Sur 0 -- -- 53
2019-11-20 16:00:00 13.8 22 Sur 46 Sudoeste 0 -- -- 51
2019-11-20 15:00:00 13.8 26 Sur 51 Sur 0 -- -- 51
2019-11-20 14:00:00 14.5 27 Sur 53 Sudoeste 0 -- -- 52
2019-11-20 13:00:00 13.6 30 Sur 54 Sur 0 -- -- 54
2019-11-20 12:00:00 12.6 28 Sur 51 Sur 0 -- -- 57
2019-11-20 11:00:00 11.8 29 Sur 50 Sur 0 -- -- 60
2019-11-20 10:00:00 11.2 26 Sur 50 Sur 0 -- -- 61
2019-11-20 09:00:00 10.5 28 Sur 51 Sur 0 -- -- 63
2019-11-20 08:00:00 10 26 Sur 49 Sur 0 -- -- 65
2019-11-20 07:00:00 10.3 27 Sur 44 Sur 0 -- -- 65
2019-11-20 06:00:00 10.5 26 Sur 45 Sur 0 -- -- 66
2019-11-20 05:00:00 9.7 19 Sur 33 Sur 0 -- -- 70
2019-11-20 04:00:00 8.7 7 Sur 15 Sur 0 -- -- 74
2019-11-20 03:00:00 8.2 0 Calma -- -- 0 -- -- 75
2019-11-20 02:00:00 7.9 0 Calma 14 Sur 0 -- -- 84
2019-11-20 01:00:00 6.7 10 Sur 14 Sudoeste 0 -- -- 95
2019-11-20 00:00:00 6.5 0 Calma 15 Sudoeste 0 -- -- 96
2019-11-19 23:00:00 6.5 10 Sudoeste 14 Sudoeste 0 -- -- 95
2019-11-19 22:00:00 6.9 10 Sur 15 Sudoeste 0 -- -- 95
2019-11-19 21:00:00 7.1 8 Sur 12 Sur 0 -- -- 93
2019-11-19 20:00:00 7.5 8 Sur 13 Sur 0 -- -- 92
2019-11-19 19:00:00 8.5 10 Sur 13 Sur 0 -- -- 87
2019-11-19 18:00:00 10.1 5 Sur 21 Este 0 -- -- 74
2019-11-19 17:00:00 11.3 14 Este 21 Este 0 -- -- 69
2019-11-19 16:00:00 12.3 17 Este 23 Este 0 -- -- 67
2019-11-19 15:00:00 14.3 8 Este 19 Este 0 -- -- 64
2019-11-19 14:00:00 14.4 10 Nordeste 15 Nordeste 0 -- -- 66
2019-11-19 13:00:00 14.2 6 Nordeste 10 Nordeste 0 -- -- 69
2019-11-19 12:00:00 13.4 0 Calma 10 Sur 0 -- -- 80
2019-11-19 11:00:00 11.4 5 Sur 12 Sudoeste 0 -- -- 94
2019-11-19 10:00:00 9.9 4 Sur 13 Sur 0 -- -- 99
2019-11-19 09:00:00 7.6 8 Sur 13 Sur 0.1 -- -- 99
2019-11-19 08:00:00 6.9 8 Sur 15 Sur 0 -- -- 99
2019-11-19 07:00:00 7.1 11 Sur 17 Sur 0 -- -- 99
2019-11-19 06:00:00 7.2 8 Sur 16 Sudoeste 0 -- -- 99
2019-11-19 05:00:00 6.7 5 Sur 17 Sudoeste 0 -- -- 99
2019-11-19 04:00:00 6.3 10 Sur 16 Sur 0 -- -- 99
2019-11-19 03:00:00 6.5 12 Sur 17 Sur 0 -- -- 99
2019-11-19 02:00:00 6.9 9 Sur 15 Sur 0.5 -- -- 99
2019-11-19 01:00:00 6.8 9 Sur 14 Sur 0 -- -- 99
2019-11-19 00:00:00 6.4 11 Sur 14 Sur 0 -- -- 99
2019-11-18 23:00:00 6.7 10 Sur 14 Sur 0 -- -- 98
2019-11-18 22:00:00 7.2 8 Sur 12 Sur 0 -- -- 97
2019-11-18 21:00:00 7.7 7 Sur 17 Sur 0.1 -- -- 96
2019-11-18 20:00:00 8.6 5 Sur 16 Sur 2.7 -- -- 93
2019-11-18 19:00:00 9.1 6 Sudoeste 13 Sudeste 0.1 -- -- 88
2019-11-18 18:00:00 9.3 5 Sur 16 Este 0 -- -- 84
2019-11-18 17:00:00 10.1 0 Calma 12 Noroeste 0 -- -- 75
2019-11-18 16:00:00 11.3 2 Noroeste 15 Noroeste 0 -- -- 70
2019-11-18 15:00:00 12.3 0 Calma -- -- 0 -- -- 70
2019-11-18 14:00:00 12.9 0 Calma 14 Sudoeste 0 -- -- 72
2019-11-18 13:00:00 10.9 6 Sur 15 Sudeste 0 -- -- 90
2019-11-18 12:00:00 9.4 12 Sur 17 Sudeste 0.7 -- -- 90
2019-11-18 11:00:00 8.8 6 Sur 12 Sur 0 -- -- 95
2019-11-18 10:00:00 8.5 0 Calma 12 Sudeste 0.6 -- -- 95
2019-11-18 09:00:00 8.1 8 Sudeste 17 Oeste 7.6 -- -- 93
2019-11-18 08:00:00 8.7 2 Oeste 24 Este 0.5 -- -- 93
2019-11-18 07:00:00 8.3 0 Calma 11 Noroeste 0 -- -- 89
2019-11-18 06:00:00 9.4 10 Noroeste 54 Nordeste 0.1 -- -- 79
2019-11-18 05:00:00 10.1 26 Norte 48 Norte 2.3 -- -- 84
2019-11-18 04:00:00 10.4 22 Norte 56 Noroeste 0.2 -- -- 81
2019-11-18 03:00:00 11.4 30 Norte 45 Noroeste 0 -- -- 74
2019-11-18 02:00:00 11 31 Norte 48 Norte 0.3 -- -- 82
2019-11-18 01:00:00 11.8 25 Norte 49 Norte 0 -- -- 83
2019-11-18 00:00:00 10.7 17 Nordeste 37 Norte 3.3 -- -- 96
2019-11-17 23:00:00 9.6 5 Sur 28 Noroeste 4.3 -- -- 93
2019-11-17 22:00:00 10.2 13 Noroeste 39 Noroeste 1.8 -- -- 90
2019-11-17 21:00:00 10.7 19 Noroeste 49 Noroeste 1.1 -- -- 89
2019-11-17 20:00:00 11.6 0 Calma 25 Norte 0.7 -- -- 75
2019-11-17 19:00:00 11.9 8 Sudoeste 30 Noroeste 0 -- -- 71
2019-11-17 18:00:00 11.5 7 Oeste 34 Oeste 0 -- -- 75
2019-11-17 17:00:00 11.9 9 Oeste 36 Sudoeste 1.2 -- -- 77
2019-11-17 16:00:00 11.5 10 Noroeste 34 Noroeste 1.9 -- -- 85
2019-11-17 15:00:00 12.4 9 Oeste 29 Noroeste 0.3 -- -- 79
2019-11-17 14:00:00 11.1 10 Sudoeste 31 Sudoeste 3.1 -- -- 91
2019-11-17 13:00:00 10.4 4 Sur 20 Sudeste 0.3 -- -- 94
2019-11-17 12:00:00 9.5 13 Sur 28 Sur 2.8 -- -- 92
2019-11-17 11:00:00 9.5 18 Sur 37 Sur 1 -- -- 92
2019-11-17 10:00:00 9.9 16 Sur 24 Sur 0.3 -- -- 90
2019-11-17 09:00:00 9.2 12 Sur 21 Sur 0 -- -- 92
2019-11-17 08:00:00 8.6 13 Sur 26 Sur 0 -- -- 96
2019-11-17 07:00:00 8.8 17 Sur 24 Sur 0 -- -- 97
2019-11-17 06:00:00 8.7 15 Sur 24 Sur 0.6 -- -- 96
2019-11-17 05:00:00 8.8 14 Sur 28 Sur 2 -- -- 94
2019-11-17 04:00:00 9.3 9 Sur 16 Sudoeste 0.7 -- -- 88
2019-11-17 03:00:00 9.5 4 Sudoeste 20 Oeste 0 -- -- 85
2019-11-17 02:00:00 10.3 8 Sudoeste 31 Sudoeste 0.5 -- -- 77
2019-11-17 01:00:00 10.3 8 Sudoeste 33 Sudoeste 0.4 -- -- 77
2019-11-17 00:00:00 10.3 10 Sudoeste 32 Oeste 0 -- -- 75
2019-11-16 23:00:00 10.5 9 Oeste 32 Sudoeste 0 -- -- 74
2019-11-16 22:00:00 10.1 16 Sudoeste 41 Sudoeste 0.2 -- -- 75
2019-11-16 21:00:00 9.5 13 Sudoeste 33 Oeste 3 -- -- 83
2019-11-16 20:00:00 10 11 Oeste 39 Sudoeste 0.9 -- -- 80
2019-11-16 19:00:00 10.4 10 Oeste 39 Sudoeste 0.6 -- -- 81
2019-11-16 18:00:00 9.9 10 Oeste 39 Oeste 0.6 -- -- 83
2019-11-16 17:00:00 9.7 11 Sudoeste 44 Sudoeste 3.7 -- -- 86
2019-11-16 16:00:00 9.8 14 Sudoeste 38 Oeste 1.2 -- -- 84
2019-11-16 15:00:00 10.7 14 Sudoeste 42 Oeste 1.7 -- -- 83
2019-11-16 14:00:00 8.3 15 Sudoeste 42 Oeste 2.3 -- -- 93
2019-11-16 13:00:00 7.5 16 Sudoeste 41 Sudoeste 5.2 -- -- 93
2019-11-16 12:00:00 7.8 16 Sudoeste 46 Sudoeste 5.6 -- -- 88
2019-11-16 11:00:00 8.2 17 Sudoeste 43 Sudoeste 4.5 -- -- 87
2019-11-16 10:00:00 8.6 11 Sudoeste 40 Oeste 3.8 -- -- 82
2019-11-16 09:00:00 9.8 15 Sudoeste 36 Sudoeste 0 -- -- 74
2019-11-16 08:00:00 8.1 7 Sur 20 Sur 0 -- -- 83
2019-11-16 07:00:00 7.9 7 Sur 19 Sudoeste 0 -- -- 86
2019-11-16 06:00:00 6.2 0 Calma -- -- 0 -- -- 92
2019-11-16 05:00:00 5.9 0 Calma 15 Sur 0 -- -- 92
2019-11-16 04:00:00 6.1 10 Sur 15 Sur 0 -- -- 93
2019-11-16 03:00:00 6.2 8 Sur 13 Sur 0 -- -- 94
2019-11-16 02:00:00 6.1 8 Sur 15 Sur 0 -- -- 93
2019-11-16 01:00:00 6.5 7 Sur 13 Sur 0 -- -- 93
2019-11-16 00:00:00 6.9 7 Sur 14 Sudoeste 0 -- -- 92